No particular awareness of the weather is required.    There are no Weather-warnings


Meteo18 Weather Cam more information Meteo18 Weather Cam


Thunder radar more information blitzortung!


Rain radar more information rain snow radar


Visit our other weather sites:

Template documentation
and downloads

And another site



Weather Underground History page Text

Daily Summary for October 27, 2017 Units:  Metric    English   Both
« Previous Day
Next Day »
Daily Weekly Monthly Yearly Custom
  High: Low: Average:
Temperature: 14.8 °C 8.6 °C 12.1 °C
Dew Point: 13.6 °C 6.6 °C 10.8 °C
Humidity: 97 % 84 % 92 %
Wind Speed: 12.9 km/h 0.0 km/h 2.3 km/h
Wind Gust: 24.1 km/h - -
Wind:- - SSW
Pressure: 1034.1 hPa 1026.3 hPa -
Precipitation: 0.3 mm    
Historical Graphs
 
 
Tabular Data for October 27, 2017
Time Temperature Dew Point Pressure Wind Wind Speed Wind Gust Humidity Rainfall Rate (Hourly)
00:02 14.6 °C 13.1 °C 1026.6 hPa NNW 3.2 km/h 6.4 km/h 91 % 0.0 mm
00:12 14.8 °C 13.2 °C 1026.6 hPa NW 3.2 km/h 6.4 km/h 90 % 0.0 mm
00:17 14.8 °C 13.2 °C 1026.6 hPa NW 3.2 km/h 6.4 km/h 90 % 0.0 mm
00:22 14.8 °C 13.2 °C 1026.3 hPa NW 3.2 km/h 6.4 km/h 90 % 0.0 mm
00:32 14.8 °C 13.2 °C 1026.3 hPa WNW 3.2 km/h 8.0 km/h 90 % 0.0 mm
00:37 14.8 °C 13.3 °C 1026.3 hPa WNW 1.6 km/h 8.0 km/h 91 % 0.0 mm
00:42 14.7 °C 13.2 °C 1026.3 hPa NW 4.8 km/h 8.0 km/h 91 % 0.0 mm
00:52 14.7 °C 13.4 °C 1026.3 hPa WNW 1.6 km/h 6.4 km/h 92 % 0.0 mm
00:57 14.6 °C 13.3 °C 1026.3 hPa Calm   4.8 km/h 92 % 0.0 mm
01:02 14.6 °C 13.3 °C 1026.6 hPa Calm   4.8 km/h 92 % 0.0 mm
01:07 14.4 °C 13.3 °C 1026.6 hPa WNW 1.6 km/h 4.8 km/h 93 % 0.0 mm
01:12 14.4 °C 13.3 °C 1026.3 hPa NW 3.2 km/h 4.8 km/h 93 % 0.0 mm
01:17 14.5 °C 13.4 °C 1026.6 hPa Calm   4.8 km/h 93 % 0.0 mm
01:22 14.6 °C 13.6 °C 1026.3 hPa WNW 1.6 km/h 4.8 km/h 94 % 0.0 mm
01:27 14.4 °C 13.3 °C 1026.3 hPa Calm   6.4 km/h 93 % 0.0 mm
01:32 14.2 °C 13.1 °C 1026.6 hPa Calm   6.4 km/h 93 % 0.0 mm
01:42 14.2 °C 13.2 °C 1026.6 hPa Calm   1.6 km/h 94 % 0.0 mm
01:47 14.1 °C 13.1 °C 1026.6 hPa Calm   1.6 km/h 94 % 0.0 mm
01:52 13.9 °C 12.9 °C 1026.6 hPa Calm   1.6 km/h 94 % 0.0 mm
01:57 13.9 °C 12.9 °C 1026.6 hPa Calm   1.6 km/h 94 % 0.0 mm
02:02 13.9 °C 13.1 °C 1026.6 hPa NW 1.6 km/h 1.6 km/h 95 % 0.0 mm
02:07 13.9 °C 13.1 °C 1026.6 hPa Calm   1.6 km/h 95 % 0.0 mm
02:12 13.8 °C 13.0 °C 1026.6 hPa Calm   1.6 km/h 95 % 0.0 mm
02:17 13.7 °C 12.9 °C 1026.6 hPa Calm   1.6 km/h 95 % 0.0 mm
02:22 13.4 °C 12.5 °C 1026.6 hPa ENE 1.6 km/h 1.6 km/h 94 % 0.0 mm
02:27 13.6 °C 12.8 °C 1026.6 hPa Calm   3.2 km/h 95 % 0.0 mm
02:32 13.2 °C 12.3 °C 1026.6 hPa Calm   3.2 km/h 94 % 0.0 mm
02:37 13.1 °C 12.3 °C 1026.6 hPa Calm   3.2 km/h 95 % 0.0 mm
02:42 13.1 °C 12.3 °C 1026.6 hPa Calm   3.2 km/h 95 % 0.0 mm
02:47 13.1 °C 12.3 °C 1026.6 hPa Calm   1.6 km/h 95 % 0.0 mm
02:52 13.0 °C 12.2 °C 1026.6 hPa Calm   1.6 km/h 95 % 0.0 mm
02:57 12.9 °C 12.1 °C 1027.0 hPa North 1.6 km/h 1.6 km/h 95 % 0.0 mm
03:02 12.8 °C 12.2 °C 1026.6 hPa NNE 1.6 km/h 1.6 km/h 96 % 0.0 mm
03:07 13.0 °C 12.4 °C 1027.0 hPa NNW 1.6 km/h 4.8 km/h 96 % 0.0 mm
03:12 13.1 °C 12.5 °C 1027.0 hPa North 1.6 km/h 4.8 km/h 96 % 0.0 mm
03:22 13.1 °C 12.5 °C 1027.0 hPa NNW 1.6 km/h 3.2 km/h 96 % 0.0 mm
03:27 13.1 °C 12.5 °C 1027.0 hPa Calm   4.8 km/h 96 % 0.0 mm
03:32 12.4 °C 11.5 °C 1027.0 hPa Calm   4.8 km/h 94 % 0.0 mm
03:37 12.3 °C 11.5 °C 1027.0 hPa Calm   1.6 km/h 95 % 0.0 mm
03:42 12.3 °C 11.7 °C 1027.0 hPa Calm   1.6 km/h 96 % 0.0 mm
03:47 12.3 °C 11.7 °C 1027.0 hPa Calm   1.6 km/h 96 % 0.0 mm
03:52 12.2 °C 11.6 °C 1027.0 hPa Calm   1.6 km/h 96 % 0.0 mm
04:02 11.9 °C 11.1 °C 1027.0 hPa Calm   1.6 km/h 95 % 0.0 mm
04:07 11.6 °C 10.8 °C 1027.0 hPa Calm   1.6 km/h 95 % 0.0 mm
04:12 11.6 °C 11.0 °C 1027.0 hPa Calm   1.6 km/h 96 % 0.0 mm
04:17 11.3 °C 10.5 °C 1027.0 hPa Calm   3.2 km/h 95 % 0.0 mm
04:22 10.5 °C 9.4 °C 1027.0 hPa Calm   3.2 km/h 93 % 0.0 mm
04:27 10.0 °C 9.1 °C 1027.0 hPa Calm   1.6 km/h 94 % 0.0 mm
04:32 9.9 °C 9.3 °C 1027.3 hPa SSE 1.6 km/h 1.6 km/h 96 % 0.0 mm
04:37 9.8 °C 9.0 °C 1027.3 hPa NE 3.2 km/h 3.2 km/h 95 % 0.0 mm
04:42 9.8 °C 9.2 °C 1027.3 hPa Calm   3.2 km/h 96 % 0.0 mm
04:47 9.8 °C 9.2 °C 1027.3 hPa Calm   4.8 km/h 96 % 0.0 mm
04:52 9.8 °C 9.2 °C 1027.0 hPa Calm   4.8 km/h 96 % 0.0 mm
04:57 10.0 °C 9.4 °C 1027.3 hPa Calm   4.8 km/h 96 % 0.0 mm
05:02 10.0 °C 9.4 °C 1027.3 hPa Calm   4.8 km/h 96 % 0.0 mm
05:07 9.9 °C 9.3 °C 1027.3 hPa Calm   3.2 km/h 96 % 0.0 mm
05:12 10.1 °C 9.5 °C 1027.3 hPa North 1.6 km/h 3.2 km/h 96 % 0.0 mm
05:22 10.5 °C 10.0 °C 1027.7 hPa NNW 1.6 km/h 3.2 km/h 97 % 0.0 mm
05:32 10.7 °C 10.2 °C 1027.7 hPa North 3.2 km/h 4.8 km/h 97 % 0.0 mm
05:37 10.9 °C 10.4 °C 1027.7 hPa NW 4.8 km/h 4.8 km/h 97 % 0.0 mm
05:42 11.1 °C 10.6 °C 1027.7 hPa NNE 8.0 km/h 8.0 km/h 97 % 0.0 mm
05:47 11.2 °C 10.7 °C 1027.7 hPa NNE 1.6 km/h 11.3 km/h 97 % 0.0 mm
05:52 11.1 °C 10.6 °C 1027.7 hPa North 4.8 km/h 11.3 km/h 97 % 0.0 mm
06:02 11.0 °C 10.4 °C 1027.7 hPa North 4.8 km/h 12.9 km/h 96 % 0.3 mm
06:07 10.9 °C 10.4 °C 1027.7 hPa North 1.6 km/h 9.7 km/h 97 % 0.3 mm
06:12 10.9 °C 10.4 °C 1028.0 hPa North 1.6 km/h 9.7 km/h 97 % 0.3 mm
06:17 11.0 °C 10.5 °C 1028.0 hPa NNW 3.2 km/h 9.7 km/h 97 % 0.3 mm
06:22 11.0 °C 10.5 °C 1028.0 hPa North 4.8 km/h 9.7 km/h 97 % 0.3 mm
06:27 11.0 °C 10.5 °C 1028.0 hPa NNE 3.2 km/h 9.7 km/h 97 % 0.3 mm
06:32 11.0 °C 10.5 °C 1028.0 hPa Calm   9.7 km/h 97 % 0.3 mm
06:42 11.1 °C 10.6 °C 1028.0 hPa North 3.2 km/h 9.7 km/h 97 % 0.3 mm
06:47 11.1 °C 10.6 °C 1028.0 hPa Calm   6.4 km/h 97 % 0.3 mm
06:52 11.1 °C 10.6 °C 1028.3 hPa North 1.6 km/h 6.4 km/h 97 % 0.3 mm
06:57 11.1 °C 10.6 °C 1028.3 hPa North 1.6 km/h 6.4 km/h 97 % 0.0 mm
07:02 11.1 °C 10.6 °C 1028.3 hPa Calm   6.4 km/h 97 % 0.0 mm
07:07 11.2 °C 10.7 °C 1028.3 hPa Calm   4.8 km/h 97 % 0.0 mm
07:12 11.2 °C 10.7 °C 1028.3 hPa Calm   4.8 km/h 97 % 0.0 mm
07:17 11.2 °C 10.7 °C 1028.3 hPa Calm   1.6 km/h 97 % 0.0 mm
07:22 11.1 °C 10.6 °C 1028.3 hPa Calm   1.6 km/h 97 % 0.0 mm
07:32 11.0 °C 10.5 °C 1028.3 hPa Calm     97 % 0.0 mm
07:42 10.9 °C 10.4 °C 1028.3 hPa Calm     97 % 0.0 mm
07:47 10.9 °C 10.4 °C 1028.7 hPa Calm     97 % 0.0 mm
07:57 10.8 °C 10.3 °C 1028.7 hPa Calm   3.2 km/h 97 % 0.0 mm
08:02 10.8 °C 10.3 °C 1028.7 hPa Calm   3.2 km/h 97 % 0.0 mm
08:12 10.9 °C 10.4 °C 1029.0 hPa Calm   3.2 km/h 97 % 0.0 mm
08:17 10.9 °C 10.4 °C 1029.0 hPa NNE 3.2 km/h 8.0 km/h 97 % 0.0 mm
08:22 10.9 °C 10.4 °C 1029.0 hPa NNW 4.8 km/h 8.0 km/h 97 % 0.0 mm
08:32 11.0 °C 10.4 °C 1029.0 hPa NNW 4.8 km/h 8.0 km/h 96 % 0.0 mm
08:42 11.1 °C 10.5 °C 1029.0 hPa NNE 11.3 km/h 11.3 km/h 96 % 0.0 mm
08:47 11.1 °C 10.5 °C 1029.3 hPa NNW 4.8 km/h 11.3 km/h 96 % 0.0 mm
08:52 11.1 °C 10.3 °C 1029.3 hPa NW 1.6 km/h 11.3 km/h 95 % 0.0 mm
09:02 11.2 °C 10.4 °C 1029.3 hPa NNW 1.6 km/h 16.1 km/h 95 % 0.0 mm
09:07 11.2 °C 10.4 °C 1029.7 hPa NNW 6.4 km/h 9.7 km/h 95 % 0.0 mm
09:12 11.2 °C 10.4 °C 1029.7 hPa West 1.6 km/h 9.7 km/h 95 % 0.0 mm
09:17 11.3 °C 10.4 °C 1029.7 hPa NNW 3.2 km/h 11.3 km/h 94 % 0.0 mm
09:22 11.3 °C 10.4 °C 1030.0 hPa North 4.8 km/h 11.3 km/h 94 % 0.0 mm
09:32 11.4 °C 10.5 °C 1030.0 hPa NNW 3.2 km/h 11.3 km/h 94 % 0.0 mm
09:37 11.5 °C 10.4 °C 1030.4 hPa North 3.2 km/h 11.3 km/h 93 % 0.0 mm
09:42 11.5 °C 10.4 °C 1030.4 hPa North 8.0 km/h 11.3 km/h 93 % 0.0 mm
09:47 11.6 °C 10.5 °C 1030.4 hPa NNE 3.2 km/h 8.0 km/h 93 % 0.0 mm
09:52 11.6 °C 10.5 °C 1030.4 hPa NW 1.6 km/h 8.0 km/h 93 % 0.0 mm
10:02 11.7 °C 10.6 °C 1030.4 hPa Calm   8.0 km/h 93 % 0.0 mm
10:12 11.7 °C 10.6 °C 1030.4 hPa North 1.6 km/h 6.4 km/h 93 % 0.0 mm
10:17 11.8 °C 10.7 °C 1030.4 hPa Calm   6.4 km/h 93 % 0.0 mm
10:22 11.8 °C 10.7 °C 1030.4 hPa WSW 1.6 km/h 6.4 km/h 93 % 0.0 mm
10:32 11.8 °C 10.7 °C 1030.4 hPa WNW 1.6 km/h 3.2 km/h 93 % 0.0 mm
10:42 11.9 °C 10.8 °C 1030.4 hPa Calm   3.2 km/h 93 % 0.0 mm
10:47 12.0 °C 10.7 °C 1030.4 hPa West 1.6 km/h 3.2 km/h 92 % 0.0 mm
10:52 12.0 °C 10.7 °C 1030.4 hPa WSW 1.6 km/h 3.2 km/h 92 % 0.0 mm
10:57 12.1 °C 10.8 °C 1030.4 hPa Calm   3.2 km/h 92 % 0.0 mm
11:02 12.1 °C 10.8 °C 1030.4 hPa West 1.6 km/h 3.2 km/h 92 % 0.0 mm
11:12 12.1 °C 10.8 °C 1030.7 hPa Calm   3.2 km/h 92 % 0.0 mm
11:17 12.1 °C 10.8 °C 1030.7 hPa WNW 1.6 km/h 3.2 km/h 92 % 0.0 mm
11:22 12.1 °C 11.0 °C 1031.0 hPa Calm   3.2 km/h 93 % 0.0 mm
11:32 12.3 °C 11.0 °C 1031.0 hPa NNW 6.4 km/h 6.4 km/h 92 % 0.0 mm
11:42 12.4 °C 11.1 °C 1031.0 hPa WNW 1.6 km/h 6.4 km/h 92 % 0.0 mm
11:47 12.5 °C 11.2 °C 1031.0 hPa Calm   8.0 km/h 92 % 0.0 mm
11:52 12.6 °C 11.3 °C 1031.0 hPa NW 1.6 km/h 8.0 km/h 92 % 0.0 mm
11:57 12.7 °C 11.4 °C 1031.4 hPa NNW 4.8 km/h 6.4 km/h 92 % 0.0 mm
12:02 12.7 °C 11.4 °C 1031.4 hPa NNE 4.8 km/h 6.4 km/h 92 % 0.0 mm
12:07 12.7 °C 11.4 °C 1031.4 hPa NNW 1.6 km/h 9.7 km/h 92 % 0.0 mm
12:12 12.7 °C 11.4 °C 1031.4 hPa WNW 3.2 km/h 9.7 km/h 92 % 0.0 mm
12:17 12.7 °C 11.4 °C 1031.4 hPa NNE 8.0 km/h 14.5 km/h 92 % 0.0 mm
12:22 12.7 °C 11.4 °C 1031.4 hPa NE 6.4 km/h 14.5 km/h 92 % 0.0 mm
12:27 12.8 °C 11.5 °C 1031.7 hPa North 8.0 km/h 12.9 km/h 92 % 0.0 mm
12:32 12.8 °C 11.5 °C 1031.7 hPa NNW 3.2 km/h 12.9 km/h 92 % 0.0 mm
12:42 12.9 °C 11.6 °C 1031.7 hPa NNE 3.2 km/h 11.3 km/h 92 % 0.0 mm
12:47 12.9 °C 11.6 °C 1031.4 hPa Calm   9.7 km/h 92 % 0.0 mm
12:52 12.9 °C 11.6 °C 1031.4 hPa WNW 1.6 km/h 9.7 km/h 92 % 0.0 mm
12:57 12.9 °C 11.6 °C 1031.7 hPa WNW 3.2 km/h 8.0 km/h 92 % 0.0 mm
13:02 12.9 °C 11.8 °C 1031.4 hPa WNW 4.8 km/h 8.0 km/h 93 % 0.0 mm
13:07 13.1 °C 12.0 °C 1031.7 hPa WNW 1.6 km/h 8.0 km/h 93 % 0.0 mm
13:12 13.1 °C 11.8 °C 1031.7 hPa West 1.6 km/h 8.0 km/h 92 % 0.0 mm
13:17 13.2 °C 11.9 °C 1031.7 hPa NW 3.2 km/h 6.4 km/h 92 % 0.0 mm
13:22 13.4 °C 12.1 °C 1031.7 hPa NW 3.2 km/h 6.4 km/h 92 % 0.0 mm
13:27 13.4 °C 12.1 °C 1031.7 hPa NW 8.0 km/h 9.7 km/h 92 % 0.0 mm
13:32 13.3 °C 12.0 °C 1032.1 hPa NNW 1.6 km/h 9.7 km/h 92 % 0.0 mm
13:37 13.3 °C 12.0 °C 1031.7 hPa NW 1.6 km/h 11.3 km/h 92 % 0.0 mm
13:42 13.4 °C 12.1 °C 1031.7 hPa NNE 6.4 km/h 11.3 km/h 92 % 0.0 mm
13:52 13.4 °C 12.1 °C 1031.7 hPa NNW 3.2 km/h 17.7 km/h 92 % 0.0 mm
14:02 13.5 °C 12.2 °C 1031.7 hPa NNW 6.4 km/h 20.9 km/h 92 % 0.0 mm
14:12 13.5 °C 12.2 °C 1031.7 hPa NNW 4.8 km/h 17.7 km/h 92 % 0.0 mm
14:22 13.5 °C 12.2 °C 1031.7 hPa NNE 6.4 km/h 12.9 km/h 92 % 0.0 mm
14:32 13.4 °C 12.1 °C 1031.7 hPa NNE 3.2 km/h 17.7 km/h 92 % 0.0 mm
14:42 13.4 °C 12.1 °C 1031.7 hPa North 11.3 km/h 17.7 km/h 92 % 0.0 mm
14:52 13.6 °C 12.3 °C 1031.7 hPa North 12.9 km/h 12.9 km/h 92 % 0.0 mm
15:02 13.7 °C 12.3 °C 1031.7 hPa North 8.0 km/h 14.5 km/h 91 % 0.0 mm
15:07 13.7 °C 12.3 °C 1031.7 hPa North 4.8 km/h 19.3 km/h 91 % 0.0 mm
15:12 13.7 °C 12.3 °C 1031.7 hPa North 8.0 km/h 19.3 km/h 91 % 0.0 mm
15:22 13.8 °C 12.5 °C 1031.7 hPa North 4.8 km/h 19.3 km/h 92 % 0.0 mm
15:32 13.9 °C 12.6 °C 1031.7 hPa NNE 8.0 km/h 16.1 km/h 92 % 0.0 mm
15:37 13.9 °C 12.6 °C 1031.7 hPa North 6.4 km/h 17.7 km/h 92 % 0.0 mm
15:42 13.8 °C 12.5 °C 1031.7 hPa North 8.0 km/h 17.7 km/h 92 % 0.0 mm
15:47 13.8 °C 12.5 °C 1031.7 hPa NNW 4.8 km/h 20.9 km/h 92 % 0.0 mm
15:52 13.6 °C 12.2 °C 1031.7 hPa NNE 9.7 km/h 20.9 km/h 91 % 0.0 mm
15:57 13.6 °C 12.2 °C 1031.7 hPa NNW 4.8 km/h 24.1 km/h 91 % 0.0 mm
16:02 13.6 °C 12.0 °C 1031.7 hPa North 9.7 km/h 24.1 km/h 90 % 0.0 mm
16:12 13.6 °C 12.0 °C 1032.1 hPa North 3.2 km/h 24.1 km/h 90 % 0.0 mm
16:17 13.6 °C 11.8 °C 1032.1 hPa ENE 1.6 km/h 19.3 km/h 89 % 0.0 mm
16:22 13.6 °C 11.8 °C 1032.1 hPa North 4.8 km/h 19.3 km/h 89 % 0.0 mm
16:27 13.7 °C 11.9 °C 1032.1 hPa NE 3.2 km/h 16.1 km/h 89 % 0.0 mm
16:32 13.7 °C 11.9 °C 1032.1 hPa North 6.4 km/h 16.1 km/h 89 % 0.0 mm
16:37 13.8 °C 12.0 °C 1032.1 hPa NE 4.8 km/h 14.5 km/h 89 % 0.0 mm
16:42 13.8 °C 11.8 °C 1032.1 hPa NE 3.2 km/h 14.5 km/h 88 % 0.0 mm
16:47 13.8 °C 11.7 °C 1032.1 hPa NE 6.4 km/h 12.9 km/h 87 % 0.0 mm
16:52 13.9 °C 11.8 °C 1032.1 hPa North 4.8 km/h 12.9 km/h 87 % 0.0 mm
16:57 13.8 °C 11.5 °C 1032.1 hPa NE 8.0 km/h 16.1 km/h 86 % 0.0 mm
17:12 13.8 °C 11.5 °C 1032.1 hPa NNE 4.8 km/h 12.9 km/h 86 % 0.0 mm
17:17 13.9 °C 11.4 °C 1032.1 hPa NE 4.8 km/h 11.3 km/h 85 % 0.0 mm
17:22 14.0 °C 11.5 °C 1032.1 hPa ENE 3.2 km/h 11.3 km/h 85 % 0.0 mm
17:27 14.0 °C 11.3 °C 1032.1 hPa North 3.2 km/h 11.3 km/h 84 % 0.0 mm
17:32 14.0 °C 11.3 °C 1032.1 hPa NE 3.2 km/h 11.3 km/h 84 % 0.0 mm
17:37 14.0 °C 11.3 °C 1032.1 hPa North 4.8 km/h 11.3 km/h 84 % 0.0 mm
17:42 14.0 °C 11.3 °C 1032.1 hPa North 3.2 km/h 11.3 km/h 84 % 0.0 mm
17:47 13.9 °C 11.4 °C 1032.1 hPa NE 3.2 km/h 8.0 km/h 85 % 0.0 mm
17:52 13.9 °C 11.4 °C 1032.1 hPa North 6.4 km/h 8.0 km/h 85 % 0.0 mm
17:57 13.8 °C 11.3 °C 1032.1 hPa Calm   8.0 km/h 85 % 0.0 mm
18:02 13.8 °C 11.3 °C 1032.1 hPa North 3.2 km/h 8.0 km/h 85 % 0.0 mm
18:12 13.7 °C 11.2 °C 1032.1 hPa NE 1.6 km/h 8.0 km/h 85 % 0.0 mm
18:17 13.7 °C 11.2 °C 1032.4 hPa Calm   4.8 km/h 85 % 0.0 mm
18:22 13.7 °C 11.2 °C 1032.4 hPa Calm   4.8 km/h 85 % 0.0 mm
18:27 13.7 °C 11.2 °C 1032.4 hPa Calm   4.8 km/h 85 % 0.0 mm
18:32 13.4 °C 10.9 °C 1032.4 hPa Calm   1.6 km/h 85 % 0.0 mm
18:37 13.1 °C 10.8 °C 1032.4 hPa Calm   1.6 km/h 86 % 0.0 mm
18:42 12.7 °C 10.6 °C 1032.4 hPa Calm   1.6 km/h 87 % 0.0 mm
18:47 12.4 °C 10.5 °C 1032.4 hPa WNW 1.6 km/h 1.6 km/h 88 % 0.0 mm
18:52 12.1 °C 10.3 °C 1032.4 hPa Calm   1.6 km/h 89 % 0.0 mm
19:02 11.8 °C 10.4 °C 1032.4 hPa West 1.6 km/h 3.2 km/h 91 % 0.0 mm
19:12 11.6 °C 10.3 °C 1032.4 hPa Calm   1.6 km/h 92 % 0.0 mm
19:17 11.6 °C 10.3 °C 1032.7 hPa WNW 1.6 km/h 1.6 km/h 92 % 0.0 mm
19:22 11.4 °C 10.1 °C 1032.7 hPa Calm   1.6 km/h 92 % 0.0 mm
19:27 11.4 °C 10.3 °C 1032.7 hPa Calm   1.6 km/h 93 % 0.0 mm
19:32 11.4 °C 10.3 °C 1032.7 hPa NNW 1.6 km/h 1.6 km/h 93 % 0.0 mm
19:42 11.6 °C 10.3 °C 1033.1 hPa Calm   4.8 km/h 92 % 0.0 mm
19:47 11.4 °C 10.1 °C 1033.1 hPa NNW 1.6 km/h 4.8 km/h 92 % 0.0 mm
19:52 11.3 °C 10.0 °C 1033.1 hPa NNE 1.6 km/h 4.8 km/h 92 % 0.0 mm
19:57 11.2 °C 9.9 °C 1033.1 hPa North 3.2 km/h 9.7 km/h 92 % 0.0 mm
20:02 11.2 °C 9.8 °C 1033.1 hPa NE 3.2 km/h 9.7 km/h 91 % 0.0 mm
20:07 11.2 °C 9.6 °C 1033.1 hPa North 3.2 km/h 11.3 km/h 90 % 0.0 mm
20:12 11.2 °C 9.5 °C 1033.4 hPa NNE 3.2 km/h 11.3 km/h 89 % 0.0 mm
20:17 11.1 °C 9.4 °C 1033.4 hPa NNE 1.6 km/h 11.3 km/h 89 % 0.0 mm
20:22 11.1 °C 9.2 °C 1033.4 hPa NNW 4.8 km/h 11.3 km/h 88 % 0.0 mm
20:27 11.1 °C 9.2 °C 1033.4 hPa NE 1.6 km/h 8.0 km/h 88 % 0.0 mm
20:32 11.0 °C 9.1 °C 1033.4 hPa NNE 3.2 km/h 8.0 km/h 88 % 0.0 mm
20:42 10.8 °C 9.1 °C 1033.7 hPa Calm   8.0 km/h 89 % 0.0 mm
20:47 10.8 °C 9.1 °C 1033.7 hPa NE 3.2 km/h 6.4 km/h 89 % 0.0 mm
20:52 10.7 °C 8.8 °C 1033.7 hPa NNW 1.6 km/h 6.4 km/h 88 % 0.0 mm
20:57 10.6 °C 8.9 °C 1033.7 hPa Calm   6.4 km/h 89 % 0.0 mm
21:02 10.5 °C 8.8 °C 1033.7 hPa North 1.6 km/h 6.4 km/h 89 % 0.0 mm
21:12 10.2 °C 8.5 °C 1033.7 hPa NNW 1.6 km/h 6.4 km/h 89 % 0.0 mm
21:22 10.0 °C 8.3 °C 1033.7 hPa Calm   6.4 km/h 89 % 0.0 mm
21:27 9.9 °C 8.2 °C 1034.1 hPa North 1.6 km/h 6.4 km/h 89 % 0.0 mm
21:32 9.8 °C 8.2 °C 1033.7 hPa Calm   6.4 km/h 90 % 0.0 mm
21:42 9.6 °C 8.0 °C 1034.1 hPa North 1.6 km/h 6.4 km/h 90 % 0.0 mm
21:52 9.5 °C 7.9 °C 1034.1 hPa NNE 3.2 km/h 8.0 km/h 90 % 0.0 mm
21:57 9.6 °C 8.0 °C 1034.1 hPa North 6.4 km/h 9.7 km/h 90 % 0.0 mm
22:02 9.7 °C 8.0 °C 1034.1 hPa North 1.6 km/h 9.7 km/h 89 % 0.0 mm
22:12 9.7 °C 8.0 °C 1034.1 hPa NE 3.2 km/h 9.7 km/h 89 % 0.0 mm
22:17 9.7 °C 8.0 °C 1034.1 hPa ENE 3.2 km/h 9.7 km/h 89 % 0.0 mm
22:22 9.8 °C 7.9 °C 1034.1 hPa NE 3.2 km/h 9.7 km/h 88 % 0.0 mm
22:27 9.7 °C 7.8 °C 1034.1 hPa Calm   12.9 km/h 88 % 0.0 mm
22:32 9.6 °C 7.7 °C 1034.1 hPa NNW 3.2 km/h 12.9 km/h 88 % 0.0 mm
22:37 9.4 °C 7.5 °C 1034.1 hPa Calm   4.8 km/h 88 % 0.0 mm
22:42 9.4 °C 7.5 °C 1034.1 hPa NNW 1.6 km/h 4.8 km/h 88 % 0.0 mm
22:52 9.3 °C 7.4 °C 1034.1 hPa Calm   6.4 km/h 88 % 0.0 mm
22:57 9.2 °C 7.3 °C 1034.1 hPa Calm   4.8 km/h 88 % 0.0 mm
23:02 9.1 °C 7.2 °C 1034.1 hPa Calm   4.8 km/h 88 % 0.0 mm
23:12 9.0 °C 7.3 °C 1033.7 hPa Calm   3.2 km/h 89 % 0.0 mm
23:17 8.9 °C 7.0 °C 1033.7 hPa Calm   1.6 km/h 88 % 0.0 mm
23:22 8.8 °C 7.1 °C 1033.7 hPa Calm   1.6 km/h 89 % 0.0 mm
23:27 8.9 °C 7.2 °C 1033.7 hPa Calm   3.2 km/h 89 % 0.0 mm
23:32 8.9 °C 7.0 °C 1033.7 hPa NW 1.6 km/h 3.2 km/h 88 % 0.0 mm
23:37 8.9 °C 7.0 °C 1033.7 hPa Calm   3.2 km/h 88 % 0.0 mm
23:42 8.8 °C 6.9 °C 1033.7 hPa Calm   3.2 km/h 88 % 0.0 mm
23:47 8.8 °C 6.9 °C 1033.7 hPa North 1.6 km/h 3.2 km/h 88 % 0.0 mm
23:52 8.8 °C 6.9 °C 1033.7 hPa North 1.6 km/h 3.2 km/h 88 % 0.0 mm
23:57 8.6 °C 6.6 °C 1033.7 hPa North 1.6 km/h 3.2 km/h 87 % 0.0 mm
Meteo18
Compliments of Weather Underground - 4 mb

Script developed by  Jim McMurry - jmcmurry@mwt.net Adapted for the template by  Wim van der Kuil - Leuven-Template.eu

You find our weather info also at:

European Weather Network

Weather Underground

Equipment we use:

Weather-station
Davis Vue

Weather-program
Meteohub

Weather-server
Raspberry PI 2 B+

Provider
1 and 1

Davis Vue

Meteohub

Raspberry PI 2 B+

1 and 1